Time;durP1;ratioP1;P1;durP2;ratioP2;P2;SDS_P1;SDS_P2;PMS_P1;PMS_P2;Temp;Humidity;BMP_temperature;BMP_pressure;BME280_temperature;BME280_humidity;BME280_pressure;Samples;Min_cycle;Max_cycle;Signal;HPM_P1;HPM_P2
2021/07/16 00:02:13;;;;;;;7.75;4.07;;;;;;;16.73;53.24;98727.09;4860251;29;20144;-75
2021/07/16 00:04:39;;;;;;;9.43;3.70;;;;;;;16.69;53.72;98741.09;4860123;29;20402;-75
2021/07/16 00:07:05;;;;;;;10.00;4.50;;;;;;;16.71;53.98;98747.19;4844705;29;20101;-76
2021/07/16 00:09:31;;;;;;;6.10;4.10;;;;;;;16.75;53.57;98745.84;4829687;29;20091;-75
2021/07/16 00:11:57;;;;;;;7.60;3.63;;;;;;;16.80;53.30;98750.69;4829658;29;20077;-75
2021/07/16 00:14:23;;;;;;;6.43;4.18;;;;;;;16.85;53.16;98756.41;4844804;29;20049;-74
2021/07/16 00:16:49;;;;;;;6.78;3.65;;;;;;;16.87;52.90;98751.69;4829546;29;20052;-75
2021/07/16 00:19:16;;;;;;;15.00;4.18;;;;;;;16.85;53.07;98749.16;4861208;29;20135;-75
2021/07/16 00:21:42;;;;;;;7.25;3.60;;;;;;;16.80;52.75;98742.59;4859667;29;20214;-75
2021/07/16 00:24:08;;;;;;;7.55;3.40;;;;;;;16.75;52.59;98735.88;4859954;29;20413;-76
2021/07/16 00:26:34;;;;;;;10.75;3.80;;;;;;;16.91;52.28;98755.69;4859736;29;20053;-74
2021/07/16 00:29:00;;;;;;;12.10;3.67;;;;;;;17.01;52.00;98753.63;4844481;29;20084;-76
2021/07/16 00:31:26;;;;;;;10.43;3.80;;;;;;;17.07;51.95;98750.19;4859763;29;20055;-76
2021/07/16 00:34:06;;;;;;;6.43;3.75;;;;;;;17.16;51.74;98745.59;4860044;29;20469;-74
2021/07/16 00:36:32;;;;;;;9.75;3.80;;;;;;;17.24;51.64;98742.81;4844399;29;20041;-75
2021/07/16 00:38:58;;;;;;;7.50;3.95;;;;;;;17.31;51.22;98743.78;4860812;29;20560;-75
2021/07/16 00:41:24;;;;;;;8.82;3.97;;;;;;;17.26;51.39;98739.94;4859530;29;20053;-74
2021/07/16 00:43:50;;;;;;;5.25;3.75;;;;;;;17.25;51.45;98747.19;4844035;29;20073;-76
2021/07/16 00:46:16;;;;;;;6.88;3.95;;;;;;;17.28;51.46;98738.75;4859517;29;20056;-76
2021/07/16 00:48:42;;;;;;;13.23;4.55;;;;;;;17.31;51.44;98738.38;4829433;29;20061;-77
2021/07/16 00:51:08;;;;;;;4.85;3.85;;;;;;;17.29;51.37;98740.41;4875099;29;20049;-76
2021/07/16 00:53:33;;;;;;;13.02;4.00;;;;;;;17.26;51.50;98726.44;4844525;29;20068;-76
2021/07/16 00:55:59;;;;;;;9.95;4.20;;;;;;;17.39;51.33;98745.59;4844093;29;20041;-78
2021/07/16 00:58:25;;;;;;;10.80;3.97;;;;;;;17.44;51.19;98741.31;4860737;29;20143;-76
2021/07/16 01:00:51;;;;;;;13.25;4.28;;;;;;;17.43;51.17;98746.91;4859728;29;20148;-75
2021/07/16 01:03:17;;;;;;;10.77;4.93;;;;;;;17.40;51.29;98744.56;4843883;29;20454;-77
2021/07/16 01:05:43;;;;;;;9.68;4.60;;;;;;;17.33;51.23;98732.78;4843857;29;20049;-76
2021/07/16 01:08:09;;;;;;;13.15;4.05;;;;;;;17.42;51.01;98747.94;4844114;29;20076;-75
2021/07/16 01:10:35;;;;;;;8.27;3.92;;;;;;;17.42;51.15;98750.63;4859221;29;20425;-75
2021/07/16 01:13:02;;;;;;;9.73;4.22;;;;;;;17.40;50.77;98752.66;4843473;29;20140;-75
2021/07/16 01:15:30;;;;;;;9.20;4.68;;;;;;;17.32;51.22;98744.63;4844025;29;20394;-76
2021/07/16 01:17:56;;;;;;;11.77;4.47;;;;;;;17.26;51.13;98739.94;4859337;29;20046;-76
2021/07/16 01:20:31;;;;;;;21.52;4.75;;;;;;;17.32;51.18;98760.84;4844042;29;20056;-75
2021/07/16 01:22:59;;;;;;;16.05;5.40;;;;;;;17.35;51.42;98755.09;4813911;29;20050;-76
2021/07/16 01:25:31;;;;;;;9.88;4.80;;;;;;;17.38;51.27;98746.63;4843796;29;20062;-75
2021/07/16 01:27:59;;;;;;;15.52;4.85;;;;;;;17.47;51.19;98759.03;4829013;29;20461;-76
2021/07/16 01:30:26;;;;;;;12.50;4.40;;;;;;;17.49;50.90;98757.00;4813420;29;20042;-76
2021/07/16 01:32:52;;;;;;;10.30;4.57;;;;;;;17.51;51.03;98754.09;4843930;29;20050;-74
2021/07/16 01:35:19;;;;;;;9.50;4.32;;;;;;;17.51;50.75;98754.09;4860197;29;20612;-75
2021/07/16 01:37:45;;;;;;;11.43;5.03;;;;;;;17.58;50.84;98755.91;4843956;29;20387;-75
2021/07/16 01:40:16;;;;;;;10.57;4.43;;;;;;;17.58;50.52;98755.91;4859039;29;20061;-76
2021/07/16 01:42:50;;;;;;;6.85;3.95;;;;;;;17.63;50.46;98756.19;4859168;29;20069;-76
2021/07/16 01:45:18;;;;;;;7.97;4.40;;;;;;;17.66;50.16;98742.31;4843940;29;20053;-76
2021/07/16 01:47:53;;;;;;;15.05;4.38;;;;;;;17.75;49.91;98739.53;4843648;29;20041;-76
2021/07/16 01:50:19;;;;;;;11.00;4.97;;;;;;;17.91;49.91;98755.63;4829382;29;20516;-76
2021/07/16 01:52:45;;;;;;;9.57;4.05;;;;;;;17.88;49.81;98756.00;4813132;29;20405;-74
2021/07/16 01:55:13;;;;;;;6.97;3.90;;;;;;;17.93;49.51;98753.56;4858529;29;20173;-75
2021/07/16 01:57:39;;;;;;;9.95;4.68;;;;;;;17.89;49.51;98758.50;4860083;29;20175;-75
2021/07/16 02:00:14;;;;;;;6.25;4.10;;;;;;;17.95;49.53;98752.38;4858954;29;20430;-75
2021/07/16 02:03:00;;;;;;;10.55;4.75;;;;;;;18.01;49.46;98744.53;4859976;29;20049;-75
2021/07/16 02:05:27;;;;;;;8.10;4.18;;;;;;;18.10;49.11;98755.09;4844848;29;20147;-76
2021/07/16 02:07:57;;;;;;;10.02;4.70;;;;;;;18.23;48.87;98742.78;4862073;29;20513;-76
2021/07/16 02:10:25;;;;;;;7.90;4.25;;;;;;;18.30;48.25;98754.53;4831618;29;20045;-76
2021/07/16 02:12:52;;;;;;;16.73;5.15;;;;;;;18.36;48.56;98753.81;4861962;29;20073;-75
2021/07/16 02:15:20;;;;;;;14.07;5.25;;;;;;;18.38;48.44;98755.28;4831229;29;20068;-77
2021/07/16 02:17:47;;;;;;;6.32;4.07;;;;;;;18.41;47.89;98745.97;4846935;29;20049;-76
2021/07/16 02:20:26;;;;;;;10.07;4.40;;;;;;;18.43;47.78;98739.34;4846621;29;20102;-76
2021/07/16 02:22:53;;;;;;;10.35;4.88;;;;;;;18.55;48.07;98747.81;4847544;29;20076;-76
2021/07/16 02:25:20;;;;;;;9.38;3.88;;;;;;;18.71;47.92;98751.38;4853680;29;20064;-75
2021/07/16 02:27:50;;;;;;;11.27;4.40;;;;;;;18.81;47.68;98750.06;4831449;29;20045;-76
2021/07/16 02:30:17;;;;;;;8.32;4.10;;;;;;;18.92;47.69;98756.84;4846563;29;20084;-76
2021/07/16 02:32:43;;;;;;;14.15;4.90;;;;;;;18.89;47.64;98757.22;4815934;29;20049;-75
2021/07/16 02:35:12;;;;;;;11.48;4.60;;;;;;;19.00;47.50;98756.72;4846014;29;20493;-76
2021/07/16 02:37:38;;;;;;;10.52;3.92;;;;;;;19.00;47.64;98754.03;4845984;29;20073;-76
2021/07/16 02:40:05;;;;;;;15.63;6.13;;;;;;;19.10;47.66;98751.81;4861468;29;20066;-75
2021/07/16 02:42:31;;;;;;;11.63;4.70;;;;;;;19.21;47.43;98750.47;4830872;29;20524;-78
2021/07/16 02:44:57;;;;;;;9.73;5.70;;;;;;;19.33;47.07;98757.09;4815712;29;20049;-77
2021/07/16 02:47:23;;;;;;;10.57;4.80;;;;;;;19.41;47.04;98748.81;4860988;29;20057;-77
2021/07/16 02:49:49;;;;;;;11.55;4.60;;;;;;;19.33;47.16;98739.97;4830544;29;20049;-77
2021/07/16 02:52:15;;;;;;;14.57;4.60;;;;;;;19.35;47.06;98738.75;4846617;29;20153;-77
2021/07/16 02:54:41;;;;;;;14.88;3.85;;;;;;;19.53;46.75;98751.84;4846288;29;20417;-76
2021/07/16 02:57:06;;;;;;;13.82;3.95;;;;;;;19.73;46.89;98745.78;4845960;29;20101;-77
2021/07/16 02:59:32;;;;;;;8.45;4.30;;;;;;;19.86;46.12;98745.91;4846376;29;20052;-76
2021/07/16 03:01:59;;;;;;;12.57;4.28;;;;;;;19.93;46.18;98727.78;4860935;29;20490;-78
2021/07/16 03:04:25;;;;;;;16.45;4.47;;;;;;;20.11;46.28;98738.97;4830740;29;20117;-77
2021/07/16 03:06:51;;;;;;;9.88;4.53;;;;;;;20.17;46.16;98736.53;4861963;29;20478;-77
2021/07/16 03:09:17;;;;;;;11.63;4.47;;;;;;;20.21;45.82;98732.38;4861223;29;20049;-77
2021/07/16 03:11:43;;;;;;;15.30;3.95;;;;;;;20.29;45.89;98724.91;4845666;29;20076;-77
2021/07/16 03:14:09;;;;;;;29.15;5.10;;;;;;;20.44;45.46;98732.06;4861157;29;20079;-77
2021/07/16 03:16:35;;;;;;;8.38;4.10;;;;;;;20.52;45.60;98735.47;4860688;29;20656;-77
2021/07/16 03:19:01;;;;;;;9.88;4.40;;;;;;;20.65;45.52;98733.84;4861178;29;20244;-77
2021/07/16 03:21:27;;;;;;;8.65;4.05;;;;;;;20.89;45.08;98740.66;4845972;29;20140;-76
2021/07/16 03:23:53;;;;;;;14.52;4.47;;;;;;;20.88;45.49;98745.25;4830237;29;20072;-77
2021/07/16 03:26:20;;;;;;;10.77;4.30;;;;;;;20.91;45.20;98728.56;4861765;29;20083;-75
2021/07/16 03:28:46;;;;;;;22.33;4.88;;;;;;;21.13;44.72;98731.09;4845143;29;20136;-77
2021/07/16 03:31:12;;;;;;;11.38;3.97;;;;;;;21.43;44.63;98737.03;4860673;29;20049;-78
2021/07/16 03:33:38;;;;;;;25.58;4.40;;;;;;;21.69;44.22;98736.22;4845500;29;20049;-77
2021/07/16 03:36:06;;;;;;;10.55;3.88;;;;;;;22.00;43.89;98743.72;4862225;29;20110;-77
2021/07/16 03:38:32;;;;;;;8.05;4.20;;;;;;;22.18;43.05;98740.41;4830096;29;20101;-79
2021/07/16 03:41:00;;;;;;;10.45;4.20;;;;;;;22.24;43.34;98742.28;4830108;29;20128;-78
2021/07/16 03:43:26;;;;;;;17.67;6.17;;;;;;;22.29;43.13;98737.03;4860523;29;20050;-77
2021/07/16 03:45:52;;;;;;;12.73;3.60;;;;;;;22.37;42.87;98741.41;4814683;29;20298;-84
2021/07/16 03:48:19;;;;;;;10.95;4.32;;;;;;;22.58;42.32;98764.81;4845050;29;20045;-82
2021/07/16 03:50:47;;;;;;;12.15;3.88;;;;;;;22.91;41.73;98778.34;4845096;29;20061;-81
2021/07/16 03:53:13;;;;;;;9.15;3.50;;;;;;;23.27;41.60;98753.22;4830858;29;20473;-77
2021/07/16 03:55:40;;;;;;;10.02;3.72;;;;;;;23.47;40.98;98740.28;4860076;29;20046;-77
2021/07/16 03:58:06;;;;;;;12.88;3.30;;;;;;;23.51;40.73;98763.34;4845087;29;20083;-78
2021/07/16 04:00:32;;;;;;;15.25;3.92;;;;;;;23.39;40.94;98751.44;4829752;29;20081;-76
2021/07/16 04:03:00;;;;;;;14.25;4.75;;;;;;;23.22;41.52;98753.88;4860292;29;20049;-78
2021/07/16 04:05:26;;;;;;;8.48;3.20;;;;;;;23.17;41.61;98741.94;4860712;29;20056;-78
2021/07/16 04:07:54;;;;;;;10.18;3.60;;;;;;;23.21;41.31;98744.03;4861287;29;20421;-77
2021/07/16 04:10:22;;;;;;;14.60;3.42;;;;;;;23.34;41.06;98754.00;4861840;29;20048;-80
2021/07/16 04:12:50;;;;;;;9.82;2.75;;;;;;;23.51;40.57;98746.16;4815502;29;20076;-82
2021/07/16 04:15:16;;;;;;;7.80;2.83;;;;;;;23.56;40.19;98738.13;4861457;29;20061;-78
2021/07/16 04:17:42;;;;;;;9.00;3.13;;;;;;;23.74;40.09;98734.66;4845107;29;20596;-80
2021/07/16 04:20:09;;;;;;;6.80;3.25;;;;;;;23.88;39.32;98730.75;4860054;29;20041;-81
2021/07/16 04:22:36;;;;;;;7.78;2.85;;;;;;;23.95;39.00;98726.06;4845081;29;20128;-80
2021/07/16 04:25:03;;;;;;;8.07;2.85;;;;;;;24.17;38.76;98725.66;4859637;29;20071;-77
2021/07/16 04:27:29;;;;;;;14.98;2.92;;;;;;;24.35;38.38;98725.66;4829391;29;20098;-79
2021/07/16 04:29:55;;;;;;;9.43;2.70;;;;;;;24.48;38.47;98741.09;4859999;29;20053;-80
2021/07/16 04:32:21;;;;;;;13.77;3.00;;;;;;;24.63;38.31;98747.00;4829582;29;20049;-82
2021/07/16 04:34:46;;;;;;;5.22;2.70;;;;;;;24.80;37.81;98744.50;4844710;29;20048;-78
2021/07/16 04:37:12;;;;;;;7.53;3.05;;;;;;;24.94;37.20;98748.75;4860789;29;20053;-78
2021/07/16 04:39:38;;;;;;;6.35;4.78;;;;;;;25.03;37.36;98742.97;4813815;29;20041;-79
2021/07/16 04:42:05;;;;;;;8.75;2.72;;;;;;;25.06;37.04;98737.03;4860967;29;20516;-78
2021/07/16 04:44:31;;;;;;;8.38;3.00;;;;;;;25.13;37.43;98732.34;4829111;29;20060;-80
2021/07/16 04:46:57;;;;;;;8.40;3.78;;;;;;;25.23;36.99;98732.59;4844548;29;20046;-85
2021/07/16 04:49:23;;;;;;;11.10;2.83;;;;;;;25.31;36.60;98729.56;4844250;29;20053;-78
2021/07/16 04:51:49;;;;;;;15.93;3.17;;;;;;;25.44;37.03;98723.88;4859333;29;20167;-81
2021/07/16 04:54:16;;;;;;;9.35;3.10;;;;;;;25.61;36.45;98728.66;4860561;29;20373;-78
2021/07/16 04:56:45;;;;;;;7.70;2.95;;;;;;;25.79;36.36;98725.03;4859514;29;20081;-78
2021/07/16 04:59:11;;;;;;;5.20;2.88;;;;;;;25.76;35.89;98722.72;4844437;29;20061;-78
2021/07/16 05:01:37;;;;;;;7.43;3.80;;;;;;;25.87;36.13;98728.25;4859516;29;20053;-77
2021/07/16 05:04:03;;;;;;;6.93;2.70;;;;;;;26.01;36.15;98728.03;4860579;29;20085;-78
2021/07/16 05:06:29;;;;;;;8.60;3.03;;;;;;;26.09;35.60;98724.94;4860691;29;20497;-80
2021/07/16 05:08:55;;;;;;;5.53;2.90;;;;;;;26.14;35.81;98716.84;4828378;29;20171;-78
2021/07/16 05:11:21;;;;;;;11.25;3.85;;;;;;;26.24;35.46;98717.06;4860320;29;20088;-76
2021/07/16 05:13:47;;;;;;;9.65;3.22;;;;;;;26.34;35.43;98713.72;4813991;29;20454;-76
2021/07/16 05:16:14;;;;;;;9.45;2.60;;;;;;;26.42;35.62;98709.78;4813681;29;20053;-77
2021/07/16 05:18:40;;;;;;;6.40;2.92;;;;;;;26.58;35.45;98711.81;4860688;29;20139;-78
2021/07/16 05:21:08;;;;;;;6.45;2.60;;;;;;;26.71;34.83;98710.72;4843806;29;20053;-78
2021/07/16 05:23:34;;;;;;;6.50;3.10;;;;;;;26.68;35.21;98706.53;4843822;29;20497;-76
2021/07/16 05:26:00;;;;;;;7.68;3.08;;;;;;;26.87;35.20;98705.28;4858718;29;20113;-79
2021/07/16 05:28:26;;;;;;;15.32;2.72;;;;;;;27.05;34.91;98707.00;4859095;29;20053;-79
2021/07/16 05:30:52;;;;;;;9.02;3.10;;;;;;;27.26;34.90;98702.75;4844083;29;20097;-77
2021/07/16 05:33:18;;;;;;;9.57;2.72;;;;;;;27.45;34.09;98699.78;4828626;29;20052;-77
2021/07/16 05:35:44;;;;;;;10.15;3.13;;;;;;;27.51;34.73;98704.28;4828441;29;20045;-79
2021/07/16 05:38:10;;;;;;;8.88;2.97;;;;;;;27.72;34.12;98694.47;4828413;29;20049;-78
2021/07/16 05:40:37;;;;;;;11.88;3.00;;;;;;;27.80;33.80;98703.16;4859362;29;20426;-77
2021/07/16 05:43:07;;;;;;;7.05;2.88;;;;;;;27.85;33.71;98702.41;4847670;29;20109;-79
2021/07/16 05:45:33;;;;;;;17.63;3.22;;;;;;;27.92;33.79;98697.59;4862548;29;20124;-78
2021/07/16 05:48:02;;;;;;;7.40;3.42;;;;;;;28.09;33.82;98697.53;4862706;29;20049;-77
2021/07/16 05:50:28;;;;;;;10.00;2.65;;;;;;;28.20;33.46;98702.09;4863271;29;20041;-78
2021/07/16 05:52:54;;;;;;;5.10;2.78;;;;;;;28.18;33.54;98707.03;4862412;29;20057;-77
2021/07/16 05:55:21;;;;;;;7.60;2.80;;;;;;;28.37;33.23;98709.50;4862207;29;20049;-74
2021/07/16 05:57:47;;;;;;;7.00;2.90;;;;;;;28.32;33.30;98700.09;4814469;29;20140;-86
2021/07/16 06:00:13;;;;;;;8.25;2.83;;;;;;;28.49;33.06;98704.75;4814653;29;20056;-79
2021/07/16 06:02:40;;;;;;;11.35;2.55;;;;;;;28.64;33.02;98709.59;4859999;29;20042;-79
2021/07/16 06:05:06;;;;;;;6.88;3.90;;;;;;;28.83;33.06;98699.13;4844750;29;20149;-76
2021/07/16 06:07:32;;;;;;;9.60;3.78;;;;;;;29.11;32.63;98696.16;4844919;29;20047;-79
2021/07/16 06:09:58;;;;;;;11.23;3.13;;;;;;;29.26;32.03;98699.06;4860626;29;20049;-79
2021/07/16 06:12:24;;;;;;;11.35;3.42;;;;;;;29.52;32.19;98702.88;4862783;29;20560;-79
2021/07/16 06:14:57;;;;;;;8.65;2.72;;;;;;;29.80;31.64;98697.38;4861413;29;20092;-77
2021/07/16 06:17:23;;;;;;;16.30;3.28;;;;;;;29.96;31.41;98696.38;4862857;29;20049;-75
2021/07/16 06:19:49;;;;;;;13.82;2.85;;;;;;;29.93;30.94;98692.22;4846213;29;20446;-75
2021/07/16 06:22:15;;;;;;;12.50;2.75;;;;;;;30.17;31.19;98691.88;4862023;29;20060;-74
2021/07/16 06:24:41;;;;;;;10.73;2.70;;;;;;;30.37;30.66;98685.63;4861019;29;20052;-78
2021/07/16 06:27:07;;;;;;;12.40;3.00;;;;;;;30.56;30.58;98694.28;4861532;29;20179;-76
2021/07/16 06:29:33;;;;;;;8.70;2.70;;;;;;;30.39;30.84;98691.69;4846351;29;20438;-75
2021/07/16 06:31:59;;;;;;;13.82;3.13;;;;;;;30.50;30.55;98682.38;4862867;29;20108;-78
2021/07/16 06:34:25;;;;;;;7.90;3.63;;;;;;;30.61;30.19;98680.50;4861658;29;20103;-76
2021/07/16 06:36:51;;;;;;;11.45;2.85;;;;;;;30.83;30.31;98672.06;4862146;29;20048;-89
2021/07/16 06:39:17;;;;;;;9.55;2.60;;;;;;;30.94;29.60;98671.00;4818175;29;20582;-79
2021/07/16 06:41:42;;;;;;;20.23;3.33;;;;;;;30.99;29.95;98681.22;4861513;29;20060;-76
2021/07/16 06:44:10;;;;;;;11.73;2.67;;;;;;;31.09;29.92;98671.03;4862628;29;20137;-75
2021/07/16 06:46:36;;;;;;;16.98;2.75;;;;;;;31.28;29.86;98671.31;4861197;29;20041;-79
2021/07/16 06:49:03;;;;;;;7.60;2.90;;;;;;;31.61;29.42;98675.53;4845897;29;20105;-80
2021/07/16 06:51:30;;;;;;;7.90;2.80;;;;;;;31.80;29.35;98677.72;4876145;29;20049;-79
2021/07/16 06:54:00;;;;;;;9.02;3.00;;;;;;;32.28;28.70;98669.94;4845943;29;20562;-75
2021/07/16 06:56:26;;;;;;;5.28;2.95;;;;;;;32.55;28.35;98675.97;4860916;29;20052;-78
2021/07/16 06:58:52;;;;;;;5.60;2.80;;;;;;;32.47;27.51;98690.38;4861359;29;20136;-81
2021/07/16 07:01:20;;;;;;;4.68;2.83;;;;;;;32.36;27.62;98672.13;4846394;29;20038;-77
2021/07/16 07:03:46;;;;;;;6.45;2.58;;;;;;;32.10;27.94;98674.94;4845507;29;20118;-80
2021/07/16 07:06:12;;;;;;;5.85;2.50;;;;;;;31.76;28.38;98674.69;4860858;29;20132;-76
2021/07/16 07:08:38;;;;;;;9.15;2.67;;;;;;;31.23;28.75;98676.03;4814580;29;20194;-76
2021/07/16 07:11:07;;;;;;;7.45;2.53;;;;;;;31.02;29.14;98675.16;4845409;29;20072;-75
2021/07/16 07:13:33;;;;;;;10.05;2.80;;;;;;;31.24;29.19;98672.16;4830206;29;20045;-78
2021/07/16 07:15:59;;;;;;;7.40;3.33;;;;;;;31.51;29.05;98667.22;4845547;29;20180;-76
2021/07/16 07:18:25;;;;;;;13.38;2.95;;;;;;;31.75;28.83;98666.69;4845203;29;20083;-76
2021/07/16 07:20:52;;;;;;;12.88;2.60;;;;;;;31.85;28.42;98667.53;4845607;29;20482;-78
2021/07/16 07:23:18;;;;;;;11.35;3.00;;;;;;;31.79;28.60;98679.69;4859988;29;20108;-76
2021/07/16 07:25:44;;;;;;;4.32;2.55;;;;;;;31.43;28.86;98654.81;4859967;29;20100;-77
2021/07/16 07:28:12;;;;;;;8.15;2.63;;;;;;;31.53;28.74;98658.69;4860066;29;20080;-75
2021/07/16 07:30:38;;;;;;;4.15;2.47;;;;;;;31.89;27.88;98656.75;4860318;29;20143;-77
2021/07/16 07:33:04;;;;;;;4.30;2.67;;;;;;;32.15;27.12;98663.88;4829756;29;20072;-75
2021/07/16 07:35:32;;;;;;;4.00;2.60;;;;;;;32.35;26.75;98653.88;4860173;29;20045;-76
2021/07/16 07:38:01;;;;;;;;;;;;;;;32.69;26.68;98661.53;4830190;29;20097;-75
2021/07/16 07:40:27;;;;;;;6.95;2.55;;;;;;;32.82;26.80;98658.13;4844953;29;19942;-76
2021/07/16 07:42:53;;;;;;;7.90;2.60;;;;;;;32.84;26.80;98661.44;4860010;29;20136;-76
2021/07/16 07:45:20;;;;;;;7.57;2.60;;;;;;;32.23;27.08;98656.09;4844614;29;20524;-76
2021/07/16 07:47:47;;;;;;;12.93;2.70;;;;;;;31.57;27.85;98668.06;4859677;29;20416;-76
2021/07/16 07:50:16;;;;;;;9.07;2.58;;;;;;;31.24;28.21;98656.41;4860111;29;20060;-76
2021/07/16 07:52:42;;;;;;;11.65;2.72;;;;;;;31.08;28.73;98652.81;4829868;29;20052;-78
2021/07/16 07:55:09;;;;;;;5.70;2.60;;;;;;;30.92;29.11;98667.69;4814488;29;20056;-79
2021/07/16 07:57:35;;;;;;;4.30;2.70;;;;;;;30.63;29.73;98668.09;4860744;29;20060;-78
2021/07/16 08:00:01;;;;;;;14.32;2.88;;;;;;;30.45;30.42;98655.63;4844887;29;20057;-79
2021/07/16 08:02:27;;;;;;;16.33;2.90;;;;;;;30.63;29.70;98659.00;4829458;29;20141;-79
2021/07/16 08:04:52;;;;;;;7.30;2.85;;;;;;;30.93;29.10;98661.88;4857358;29;20076;-79
2021/07/16 08:07:18;;;;;;;11.93;3.08;;;;;;;30.75;29.25;98664.31;4859261;29;20072;-76
2021/07/16 08:09:44;;;;;;;7.65;2.80;;;;;;;30.59;30.03;98678.03;4844192;29;20041;-76
2021/07/16 08:12:12;;;;;;;7.50;2.88;;;;;;;30.87;29.42;98657.44;4859813;29;20055;-79
2021/07/16 08:14:38;;;;;;;5.25;2.70;;;;;;;31.01;28.78;98663.28;4813847;29;20086;-77
2021/07/16 08:17:04;;;;;;;9.60;2.72;;;;;;;30.96;28.86;98668.81;4859954;29;20053;-77
2021/07/16 08:19:30;;;;;;;6.55;3.30;;;;;;;30.94;28.70;98673.75;4829263;29;20193;-80
2021/07/16 08:21:56;;;;;;;5.10;2.80;;;;;;;30.91;28.53;98663.25;4859215;29;20454;-79
2021/07/16 08:24:22;;;;;;;8.75;2.80;;;;;;;31.13;28.28;98669.38;4859177;29;20050;-83
2021/07/16 08:26:48;;;;;;;3.17;2.40;;;;;;;30.83;28.51;98661.84;4859085;29;20073;-81
2021/07/16 08:29:14;;;;;;;5.00;2.70;;;;;;;30.69;28.67;98656.00;4859056;29;20053;-76
2021/07/16 08:31:41;;;;;;;9.35;2.55;;;;;;;30.96;28.39;98652.25;4843780;29;20131;-78
2021/07/16 08:34:07;;;;;;;7.72;2.63;;;;;;;31.08;28.21;98646.47;4859445;29;20057;-77
2021/07/16 08:36:34;;;;;;;5.20;2.63;;;;;;;31.39;27.74;98636.31;4859081;29;20045;-78
2021/07/16 08:39:00;;;;;;;15.00;3.00;;;;;;;32.02;27.20;98650.66;4858685;29;20045;-79
2021/07/16 08:41:26;;;;;;;8.98;2.63;;;;;;;32.08;26.95;98646.78;4843740;29;20064;-77
2021/07/16 08:43:52;;;;;;;7.40;2.90;;;;;;;31.83;26.90;98635.72;4858925;29;20583;-78
2021/07/16 08:46:18;;;;;;;4.97;2.55;;;;;;;31.55;27.48;98635.19;4828912;29;20045;-78
2021/07/16 08:48:47;;;;;;;9.80;2.80;;;;;;;31.62;27.84;98652.31;4829049;29;20045;-78
2021/07/16 08:51:21;;;;;;;16.27;3.00;;;;;;;31.69;26.91;98652.88;4858740;29;20564;-78
2021/07/16 08:53:50;;;;;;;7.97;2.90;;;;;;;31.46;27.03;98647.91;4858112;29;20127;-77
2021/07/16 08:56:17;;;;;;;4.72;2.67;;;;;;;31.88;26.76;98633.81;4858838;29;20084;-77
2021/07/16 08:58:43;;;;;;;3.83;2.60;;;;;;;31.92;26.34;98645.94;4829037;29;20049;-82
2021/07/16 09:01:10;;;;;;;7.43;2.83;;;;;;;31.81;26.48;98637.94;4843749;29;20046;-80
2021/07/16 09:03:59;;;;;;;16.40;3.25;;;;;;;31.77;26.63;98636.84;4858899;29;20142;-76
2021/07/16 09:06:53;;;;;;;6.78;2.50;;;;;;;31.90;26.35;98630.78;4828986;29;20057;-79
2021/07/16 09:09:21;;;;;;;10.15;3.50;;;;;;;32.02;26.42;98623.00;4843630;29;20042;-80
2021/07/16 09:11:51;;;;;;;5.65;2.90;;;;;;;31.91;26.66;98616.66;4857903;29;20505;-78
2021/07/16 09:14:28;;;;;;;5.85;3.10;;;;;;;32.12;26.28;98622.97;4874470;29;20045;-77
2021/07/16 09:17:02;;;;;;;3.47;2.70;;;;;;;32.06;26.43;98615.81;4814361;29;20049;-82
2021/07/16 09:19:32;;;;;;;3.80;2.67;;;;;;;32.43;26.08;98616.53;4844662;29;20058;-78
2021/07/16 09:22:00;;;;;;;12.05;3.00;;;;;;;32.78;26.09;98618.28;4828826;29;20202;-79
2021/07/16 09:24:25;;;;;;;13.48;3.15;;;;;;;32.62;26.54;98615.59;4829275;29;20054;-81
2021/07/16 09:26:52;;;;;;;6.53;2.60;;;;;;;32.68;26.43;98610.03;4846015;29;20065;-76
2021/07/16 09:29:28;;;;;;;4.38;2.85;;;;;;;32.68;26.33;98612.81;4815931;29;20053;-80
2021/07/16 09:32:05;;;;;;;8.63;3.17;;;;;;;32.42;26.41;98621.22;4816720;29;20095;-77
2021/07/16 09:34:31;;;;;;;8.73;3.00;;;;;;;32.01;27.22;98626.03;4832096;29;20042;-78
2021/07/16 09:36:58;;;;;;;5.70;3.85;;;;;;;32.15;26.79;98616.88;4846635;29;20145;-77
2021/07/16 09:39:25;;;;;;;8.07;3.05;;;;;;;32.32;26.72;98624.03;4846960;29;20049;-83
2021/07/16 09:41:54;;;;;;;8.25;2.80;;;;;;;31.94;27.38;98623.56;4862539;29;20089;-80
2021/07/16 09:44:41;;;;;;;6.40;3.00;;;;;;;31.95;27.41;98605.88;4847397;29;20049;-75
2021/07/16 09:47:17;;;;;;;4.25;3.20;;;;;;;31.90;27.58;98612.25;4847470;29;20046;-76
2021/07/16 09:49:49;;;;;;;3.67;2.95;;;;;;;32.23;27.22;98596.09;4863569;29;20054;-76
2021/07/16 09:52:19;;;;;;;10.55;2.88;;;;;;;32.81;26.62;98595.56;4817266;29;20042;-75
2021/07/16 09:55:09;;;;;;;4.95;3.00;;;;;;;33.52;26.28;98589.53;4817164;29;20405;-76
2021/07/16 09:57:37;;;;;;;5.93;3.15;;;;;;;33.54;25.74;98592.84;4863603;29;20076;-75
2021/07/16 10:00:22;;;;;;;6.68;3.03;;;;;;;33.64;26.02;98585.56;4847090;29;20140;-75
2021/07/16 10:02:52;;;;;;;8.10;3.28;;;;;;;34.12;25.56;98586.47;4817383;29;20138;-75
2021/07/16 10:05:18;;;;;;;5.20;3.25;;;;;;;34.35;24.82;98595.06;4862337;29;20105;-76
2021/07/16 10:07:45;;;;;;;8.77;3.00;;;;;;;34.11;25.08;98592.28;4847036;29;20445;-76
2021/07/16 10:10:18;;;;;;;7.05;2.92;;;;;;;33.99;25.49;98576.88;4862158;29;20042;-76
2021/07/16 10:12:45;;;;;;;4.63;2.90;;;;;;;34.17;25.20;98572.50;4832271;29;20111;-75
2021/07/16 10:15:15;;;;;;;4.68;2.65;;;;;;;34.16;24.91;98565.31;4831224;29;20053;-75
2021/07/16 10:17:41;;;;;;;5.35;3.17;;;;;;;34.29;25.28;98563.75;4861692;29;20054;-75
2021/07/16 10:20:15;;;;;;;11.87;3.10;;;;;;;35.41;24.13;98558.53;4846477;29;20413;-76
2021/07/16 10:22:42;;;;;;;5.53;3.00;;;;;;;36.24;23.28;98545.56;4846525;29;20060;-76
2021/07/16 10:25:08;;;;;;;4.82;2.88;;;;;;;37.12;22.23;98543.28;4861900;29;20069;-74
2021/07/16 10:27:34;;;;;;;7.03;3.40;;;;;;;37.03;21.71;98563.88;4846006;29;20516;-76
2021/07/16 10:30:14;;;;;;;5.97;3.25;;;;;;;36.44;21.77;98556.25;4831100;29;20409;-75
2021/07/16 10:32:52;;;;;;;9.77;3.50;;;;;;;36.02;22.43;98559.38;4862416;29;20459;-74
2021/07/16 10:35:26;;;;;;;6.60;3.10;;;;;;;35.50;23.16;98549.19;4862597;29;20088;-74
2021/07/16 10:37:56;;;;;;;8.32;3.45;;;;;;;34.48;24.49;98566.56;4861625;29;20410;-77
2021/07/16 10:40:37;;;;;;;13.98;3.65;;;;;;;33.79;25.72;98560.47;4846532;29;20049;-76
2021/07/16 10:43:04;;;;;;;8.75;3.83;;;;;;;33.56;26.38;98560.13;4861969;29;20057;-77
2021/07/16 10:45:35;;;;;;;10.30;3.80;;;;;;;33.53;26.41;98563.47;4861618;29;20050;-76
2021/07/16 10:48:13;;;;;;;13.73;3.50;;;;;;;32.86;27.75;98590.00;4831119;29;20056;-78
2021/07/16 10:50:40;;;;;;;20.67;4.35;;;;;;;31.99;29.84;98576.56;4816076;29;20042;-76
2021/07/16 10:53:08;;;;;;;17.10;3.75;;;;;;;31.28;30.92;98551.78;4862535;29;20421;-75
2021/07/16 10:55:53;;;;;;;13.60;3.67;;;;;;;31.25;31.15;98588.22;4861707;29;20093;-76
2021/07/16 10:58:24;;;;;;;13.07;3.83;;;;;;;30.87;31.49;98565.56;4830582;29;20050;-76
2021/07/16 11:00:54;;;;;;;10.32;3.40;;;;;;;30.27;33.11;98597.34;4830379;29;20096;-77
2021/07/16 11:03:21;;;;;;;13.15;4.18;;;;;;;30.31;32.88;98555.19;4830371;29;20060;-76
2021/07/16 11:05:47;;;;;;;10.57;3.17;;;;;;;30.47;32.48;98601.03;4845901;29;20474;-75
2021/07/16 11:08:42;;;;;;;5.72;2.83;;;;;;;29.86;33.27;98575.06;4861144;29;20142;-77
2021/07/16 11:11:43;;;;;;;12.52;3.60;;;;;;;29.79;33.66;98558.81;4862544;29;20053;-75
2021/07/16 11:14:19;;;;;;;9.25;3.47;;;;;;;29.78;33.43;98551.63;4833301;29;20117;-75
2021/07/16 11:16:46;;;;;;;10.10;3.33;;;;;;;30.04;33.26;98554.50;4845840;29;20505;-74
2021/07/16 11:19:12;;;;;;;8.43;3.60;;;;;;;29.77;33.60;98559.06;4845650;29;20057;-75
2021/07/16 11:21:48;;;;;;;3.47;3.00;;;;;;;29.81;33.71;98553.00;4860574;29;20045;-74
2021/07/16 11:24:20;;;;;;;15.23;3.15;;;;;;;29.68;33.98;98555.16;4829621;29;20140;-75
2021/07/16 11:26:47;;;;;;;6.07;2.92;;;;;;;29.78;33.60;98546.09;4861046;29;20053;-74
2021/07/16 11:29:13;;;;;;;11.18;2.92;;;;;;;29.92;33.41;98551.97;4845850;29;20441;-76
2021/07/16 11:31:40;;;;;;;8.68;2.97;;;;;;;29.84;32.96;98571.78;4860114;29;20045;-76
2021/07/16 11:34:09;;;;;;;5.03;2.90;;;;;;;30.07;32.39;98537.44;4845410;29;20053;-77